createdAt,value
2018-12-13T00:01:13.503Z,0.50
2018-12-13T00:03:41.990Z,0.50
2018-12-13T00:06:10.485Z,0.50
2018-12-13T00:08:38.925Z,0.50
2018-12-13T00:11:07.388Z,0.40
2018-12-13T00:13:35.831Z,0.40
2018-12-13T00:16:04.283Z,0.30
2018-12-13T00:18:32.724Z,0.30
2018-12-13T00:21:01.171Z,0.30
2018-12-13T00:23:29.609Z,0.30
2018-12-13T00:25:58.071Z,0.40
2018-12-13T00:28:26.499Z,0.30
2018-12-13T00:30:54.950Z,0.30
2018-12-13T00:33:23.367Z,0.30
2018-12-13T00:35:51.783Z,0.30
2018-12-13T00:38:20.183Z,0.30
2018-12-13T00:40:48.616Z,0.30
2018-12-13T00:43:17.010Z,0.30
2018-12-13T00:45:45.433Z,0.30
2018-12-13T00:48:13.838Z,0.30
2018-12-13T00:50:42.258Z,0.20
2018-12-13T00:53:10.688Z,0.20
2018-12-13T00:55:39.123Z,0.20
2018-12-13T00:58:07.541Z,0.20
2018-12-13T01:00:35.963Z,0.20
2018-12-13T01:03:04.471Z,0.20
2018-12-13T01:05:32.949Z,0.20
2018-12-13T01:08:01.355Z,0.20
2018-12-13T01:10:29.779Z,0.20
2018-12-13T01:12:58.182Z,0.10
2018-12-13T01:15:30.831Z,-0.10
2018-12-13T01:17:59.226Z,-0.20
2018-12-13T01:20:27.647Z,-0.30
2018-12-13T01:22:56.043Z,-0.40
2018-12-13T01:25:24.467Z,-0.40
2018-12-13T01:27:52.897Z,-0.50
2018-12-13T01:30:21.328Z,-0.50
2018-12-13T01:32:49.770Z,-0.50
2018-12-13T01:35:18.307Z,-0.60
2018-12-13T01:37:46.736Z,-0.60
2018-12-13T01:40:15.152Z,-0.60
2018-12-13T01:42:43.576Z,-0.60
2018-12-13T01:45:12.094Z,-0.70
2018-12-13T01:47:40.515Z,-0.80
2018-12-13T01:50:09.159Z,-0.80
2018-12-13T01:52:37.632Z,-0.90
2018-12-13T01:55:06.165Z,-0.80
2018-12-13T01:57:34.594Z,-0.90
2018-12-13T02:00:03.042Z,-0.80
2018-12-13T02:02:31.467Z,-0.80
2018-12-13T02:04:59.863Z,-0.90
2018-12-13T02:07:28.289Z,-0.90
2018-12-13T02:09:56.726Z,-1.00
2018-12-13T02:12:25.139Z,-1.00
2018-12-13T02:14:53.544Z,-1.00
2018-12-13T02:17:21.966Z,-0.90
2018-12-13T02:19:50.366Z,-1.00
2018-12-13T02:22:18.788Z,-0.90
2018-12-13T02:24:47.192Z,-1.00
2018-12-13T02:27:15.618Z,-0.90
2018-12-13T02:29:44.867Z,-0.90
2018-12-13T02:32:13.431Z,-1.00
2018-12-13T02:34:41.887Z,-0.90
2018-12-13T02:37:10.315Z,-0.80
2018-12-13T02:39:38.707Z,-0.70
2018-12-13T02:42:07.133Z,-0.60
2018-12-13T02:44:35.551Z,-0.70
2018-12-13T02:47:03.999Z,-0.70
2018-12-13T02:49:32.817Z,-0.70
2018-12-13T02:52:01.303Z,-0.70
2018-12-13T02:54:29.720Z,-0.60
2018-12-13T02:56:58.154Z,-0.70
2018-12-13T02:59:26.567Z,-0.80
2018-12-13T03:01:54.990Z,-0.80
2018-12-13T03:04:23.501Z,-0.80
2018-12-13T03:06:51.922Z,-0.90
2018-12-13T03:09:20.333Z,-1.00
2018-12-13T03:11:48.764Z,-0.90
2018-12-13T03:14:17.175Z,-0.90
2018-12-13T03:16:45.612Z,-1.00
2018-12-13T03:19:14.024Z,-1.10
2018-12-13T03:21:42.451Z,-1.10
2018-12-13T03:24:10.855Z,-1.10
2018-12-13T03:26:39.275Z,-1.10
2018-12-13T03:29:07.919Z,-1.20
2018-12-13T03:31:36.343Z,-1.20
2018-12-13T03:34:04.884Z,-1.30
2018-12-13T03:36:33.309Z,-1.20
2018-12-13T03:39:01.743Z,-1.10
2018-12-13T03:41:30.282Z,-1.00
2018-12-13T03:43:58.712Z,-1.00
2018-12-13T03:46:27.162Z,-0.90
2018-12-13T03:48:55.563Z,-0.80
2018-12-13T03:51:23.995Z,-0.70
2018-12-13T03:53:52.441Z,-0.70
2018-12-13T03:56:20.897Z,-0.70
2018-12-13T03:58:49.329Z,-0.60
2018-12-13T04:01:17.732Z,-0.60
2018-12-13T04:03:46.155Z,-0.60
2018-12-13T04:06:14.547Z,-0.50
2018-12-13T04:08:42.968Z,-0.40
2018-12-13T04:11:11.379Z,-0.40
2018-12-13T04:13:39.820Z,-0.40
2018-12-13T04:16:08.215Z,-0.30
2018-12-13T04:18:36.664Z,-0.30
2018-12-13T04:21:05.067Z,-0.30
2018-12-13T04:23:33.495Z,-0.20
2018-12-13T04:26:01.896Z,-0.10
2018-12-13T04:28:30.311Z,0.00
2018-12-13T04:30:58.794Z,0.00
2018-12-13T04:33:27.268Z,0.10
2018-12-13T04:35:55.703Z,0.00
2018-12-13T04:38:24.131Z,0.10
2018-12-13T04:40:52.586Z,0.10
2018-12-13T04:43:21.043Z,0.10
2018-12-13T04:45:49.468Z,0.10
2018-12-13T04:48:17.906Z,0.10
2018-12-13T04:50:46.443Z,0.20
2018-12-13T04:53:14.897Z,0.10
2018-12-13T04:55:43.323Z,0.10
2018-12-13T04:58:11.779Z,0.00
2018-12-13T05:00:40.199Z,0.00
2018-12-13T05:03:08.642Z,0.00
2018-12-13T05:05:37.083Z,0.00
2018-12-13T05:08:05.522Z,0.00
2018-12-13T05:10:49.148Z,0.00
2018-12-13T05:13:17.832Z,0.00
2018-12-13T05:15:46.258Z,0.00
2018-12-13T05:18:14.828Z,0.00
2018-12-13T05:20:43.261Z,0.00
2018-12-13T05:23:11.699Z,0.00
2018-12-13T05:25:40.173Z,0.00
2018-12-13T05:28:08.614Z,0.10
2018-12-13T05:30:37.063Z,0.10
2018-12-13T05:33:05.519Z,0.10
2018-12-13T05:35:33.930Z,0.10
2018-12-13T05:38:02.343Z,0.10
2018-12-13T05:40:30.875Z,0.10
2018-12-13T05:42:59.361Z,0.10
2018-12-13T05:45:27.852Z,0.10
2018-12-13T05:47:56.281Z,0.20
2018-12-13T05:50:24.700Z,0.20
2018-12-13T05:52:53.123Z,0.20
2018-12-13T05:55:21.548Z,0.20
2018-12-13T05:57:49.982Z,0.20
2018-12-13T06:00:18.459Z,0.20
2018-12-13T06:02:46.929Z,0.20
2018-12-13T06:05:15.330Z,0.20
2018-12-13T06:07:43.763Z,0.20
2018-12-13T06:10:12.191Z,0.20
2018-12-13T06:12:40.606Z,0.20
2018-12-13T06:15:09.174Z,0.20
2018-12-13T06:17:37.589Z,0.20
2018-12-13T06:20:06.270Z,0.30
2018-12-13T06:22:34.670Z,0.30
2018-12-13T06:25:03.335Z,0.30
2018-12-13T06:27:31.723Z,0.30
2018-12-13T06:30:00.162Z,0.20
2018-12-13T06:32:28.615Z,0.20
2018-12-13T06:34:57.046Z,0.30
2018-12-13T06:37:25.443Z,0.20
2018-12-13T06:39:53.870Z,0.20
2018-12-13T06:42:22.283Z,0.20
2018-12-13T06:44:50.709Z,0.20
2018-12-13T06:47:19.106Z,0.30
2018-12-13T06:49:47.524Z,0.20
2018-12-13T06:52:15.935Z,0.20
2018-12-13T06:54:44.344Z,0.30
2018-12-13T06:57:12.746Z,0.30
2018-12-13T06:59:41.165Z,0.30
2018-12-13T07:02:09.577Z,0.30
2018-12-13T07:04:38.107Z,0.30
2018-12-13T07:07:06.527Z,0.30
2018-12-13T07:09:34.951Z,0.30
2018-12-13T07:12:03.391Z,0.30
2018-12-13T07:14:31.810Z,0.30
2018-12-13T07:17:00.207Z,0.30
2018-12-13T07:19:28.636Z,0.30
2018-12-13T07:21:57.035Z,0.30
2018-12-13T07:24:25.470Z,0.30
2018-12-13T07:26:53.955Z,0.30
2018-12-13T07:29:22.418Z,0.30
2018-12-13T07:31:50.824Z,0.30
2018-12-13T07:34:19.266Z,0.30
2018-12-13T07:36:47.648Z,0.20
2018-12-13T07:39:16.075Z,0.10
2018-12-13T07:41:44.495Z,0.20
2018-12-13T07:44:12.920Z,0.20
2018-12-13T07:46:41.388Z,0.20
2018-12-13T07:49:09.868Z,0.10
2018-12-13T07:51:38.258Z,0.10
2018-12-13T07:54:06.703Z,0.00
2018-12-13T07:56:35.163Z,0.10
2018-12-13T07:59:03.676Z,0.00
2018-12-13T08:01:32.676Z,0.10
2018-12-13T08:04:01.188Z,0.10
2018-12-13T08:06:29.605Z,0.00
2018-12-13T08:08:58.006Z,0.00
2018-12-13T08:11:26.422Z,0.00
2018-12-13T08:13:54.830Z,0.00
2018-12-13T08:16:23.242Z,0.00
2018-12-13T08:18:51.635Z,0.00
2018-12-13T08:21:20.051Z,0.00
2018-12-13T08:23:48.464Z,0.00
2018-12-13T08:26:16.882Z,0.00
2018-12-13T08:28:45.320Z,0.10
2018-12-13T08:31:13.743Z,0.10
2018-12-13T08:33:42.202Z,0.20
2018-12-13T08:36:10.639Z,0.20
2018-12-13T08:38:39.060Z,0.10
2018-12-13T08:41:07.500Z,0.20
2018-12-13T08:43:35.939Z,0.10
2018-12-13T08:46:04.378Z,0.10
2018-12-13T08:48:32.794Z,0.10
2018-12-13T08:51:01.230Z,0.10
2018-12-13T08:53:29.683Z,0.20
2018-12-13T08:55:58.147Z,0.20
2018-12-13T08:58:26.575Z,0.20
2018-12-13T09:00:55.013Z,0.30
2018-12-13T09:03:23.439Z,0.30
2018-12-13T09:05:51.975Z,0.40
2018-12-13T09:08:20.455Z,0.40
2018-12-13T09:10:48.918Z,0.40
2018-12-13T09:13:17.350Z,0.50
2018-12-13T09:15:45.796Z,0.50
2018-12-13T09:18:14.263Z,0.60
2018-12-13T09:20:42.751Z,0.60
2018-12-13T09:23:11.176Z,0.60
2018-12-13T09:25:39.675Z,0.70
2018-12-13T09:28:08.116Z,0.80
2018-12-13T09:30:36.624Z,0.70
2018-12-13T09:33:05.082Z,0.90
2018-12-13T09:35:33.550Z,1.00
2018-12-13T09:38:01.964Z,0.90
2018-12-13T09:40:30.417Z,0.90
2018-12-13T09:42:58.865Z,1.00
2018-12-13T09:45:27.327Z,1.10
2018-12-13T09:47:55.823Z,1.00
2018-12-13T09:50:24.280Z,0.90
2018-12-13T09:52:52.713Z,1.10
2018-12-13T09:55:21.172Z,1.00
2018-12-13T09:57:49.596Z,1.00
2018-12-13T10:00:18.044Z,1.10
2018-12-13T10:02:46.483Z,0.90
2018-12-13T10:05:14.947Z,0.90
2018-12-13T10:07:43.372Z,0.90
2018-12-13T10:10:12.099Z,1.00
2018-12-13T10:12:40.573Z,1.10
2018-12-13T10:15:09.031Z,1.10
2018-12-13T10:17:37.462Z,1.10
2018-12-13T10:20:06.070Z,1.10
2018-12-13T10:22:34.487Z,1.00
2018-12-13T10:25:02.931Z,1.10
2018-12-13T10:27:31.381Z,1.00
2018-12-13T10:29:59.815Z,1.20
2018-12-13T10:32:28.307Z,1.40
2018-12-13T10:34:56.736Z,1.50
2018-12-13T10:37:25.323Z,1.50
2018-12-13T10:39:53.754Z,1.40
2018-12-13T10:42:22.200Z,1.30
2018-12-13T10:44:50.619Z,1.40
2018-12-13T10:47:19.059Z,1.40
2018-12-13T10:49:47.479Z,1.20
2018-12-13T10:52:16.010Z,1.30
2018-12-13T10:54:44.460Z,1.30
2018-12-13T10:57:12.907Z,1.20
2018-12-13T10:59:41.384Z,1.20
2018-12-13T11:02:15.196Z,1.30
2018-12-13T11:04:43.639Z,1.30
2018-12-13T11:07:12.095Z,1.20
2018-12-13T11:09:40.525Z,1.20
2018-12-13T11:12:08.974Z,1.30
2018-12-13T11:14:37.387Z,1.30
2018-12-13T11:17:05.950Z,1.30
2018-12-13T11:19:34.372Z,1.30
2018-12-13T11:22:02.811Z,1.30
2018-12-13T11:24:31.247Z,1.30
2018-12-13T11:27:09.757Z,1.40
2018-12-13T11:29:49.424Z,1.40
2018-12-13T11:32:17.995Z,1.40
2018-12-13T11:34:46.451Z,1.40
2018-12-13T11:37:14.888Z,1.50
2018-12-13T11:39:43.291Z,1.50
2018-12-13T11:42:11.716Z,1.40
2018-12-13T11:44:40.133Z,1.50
2018-12-13T11:47:08.575Z,1.50
2018-12-13T11:49:37.010Z,1.40
2018-12-13T11:52:05.518Z,1.40
2018-12-13T11:54:42.151Z,1.50
2018-12-13T11:57:10.972Z,1.40
2018-12-13T11:59:39.364Z,1.40
2018-12-13T12:02:07.799Z,1.40
2018-12-13T12:04:36.195Z,1.40
2018-12-13T12:07:04.632Z,1.30
2018-12-13T12:09:33.031Z,1.30
2018-12-13T12:12:01.462Z,1.20
2018-12-13T12:14:29.944Z,1.20
2018-12-13T12:16:58.387Z,1.20
2018-12-13T12:19:27.104Z,1.20
2018-12-13T12:21:55.527Z,1.20
2018-12-13T12:24:23.938Z,1.20
2018-12-13T12:26:52.374Z,1.20
2018-12-13T12:29:20.775Z,1.00
2018-12-13T12:31:49.183Z,1.10
2018-12-13T12:34:17.636Z,1.10
2018-12-13T12:36:46.083Z,1.10
2018-12-13T12:39:18.512Z,1.30
2018-12-13T12:41:45.390Z,1.20
2018-12-13T12:44:13.845Z,1.10
2018-12-13T12:46:42.310Z,1.10
2018-12-13T12:49:10.723Z,1.10
2018-12-13T12:51:39.239Z,1.10
2018-12-13T12:54:07.679Z,1.20
2018-12-13T12:56:36.140Z,1.20
2018-12-13T12:59:04.601Z,1.10
2018-12-13T13:01:33.038Z,1.10
2018-12-13T13:04:01.490Z,1.20
2018-12-13T13:06:29.931Z,1.20
2018-12-13T13:08:58.386Z,1.20
2018-12-13T13:11:26.875Z,1.20
2018-12-13T13:13:55.312Z,1.30
2018-12-13T13:16:23.738Z,1.30
2018-12-13T13:18:52.171Z,1.30
2018-12-13T13:21:20.595Z,1.20
2018-12-13T13:23:49.090Z,1.10
2018-12-13T13:26:17.528Z,1.20
2018-12-13T13:28:45.992Z,1.20
2018-12-13T13:31:14.463Z,1.10
2018-12-13T13:33:43.199Z,1.20
2018-12-13T13:36:11.859Z,1.20
2018-12-13T13:38:40.703Z,1.20
2018-12-13T13:41:09.127Z,1.20
2018-12-13T13:43:37.556Z,1.20
2018-12-13T13:46:05.943Z,1.20
2018-12-13T13:48:34.383Z,1.20
2018-12-13T13:51:02.804Z,1.30
2018-12-13T13:53:31.270Z,1.20
2018-12-13T13:55:59.668Z,1.20
2018-12-13T13:58:28.091Z,1.10
2018-12-13T14:00:56.490Z,1.10
2018-12-13T14:03:24.946Z,1.10
2018-12-13T14:05:53.398Z,1.10
2018-12-13T14:08:21.827Z,1.10
2018-12-13T14:10:50.244Z,1.20
2018-12-13T14:13:18.710Z,1.10
2018-12-13T14:15:47.102Z,1.10
2018-12-13T14:18:15.518Z,1.10
2018-12-13T14:20:43.982Z,1.10
2018-12-13T14:23:12.425Z,1.10
2018-12-13T14:25:40.841Z,1.10
2018-12-13T14:28:09.260Z,1.10
2018-12-13T14:30:37.663Z,1.10
2018-12-13T14:33:06.109Z,1.10
2018-12-13T14:35:34.556Z,1.10
2018-12-13T14:38:02.996Z,1.10
2018-12-13T14:40:31.431Z,1.10
2018-12-13T14:42:59.883Z,1.10
2018-12-13T14:45:28.290Z,1.10
2018-12-13T14:47:56.706Z,1.10
2018-12-13T14:50:25.142Z,1.10
2018-12-13T14:52:53.604Z,1.10
2018-12-13T14:55:22.016Z,1.10
2018-12-13T14:57:50.483Z,1.00
2018-12-13T15:00:19.060Z,1.10
2018-12-13T15:02:47.502Z,1.10
2018-12-13T15:05:16.545Z,1.10
2018-12-13T15:07:44.997Z,1.10
2018-12-13T15:10:13.428Z,1.10
2018-12-13T15:12:41.864Z,1.10
2018-12-13T15:15:10.367Z,1.10
2018-12-13T15:17:38.911Z,1.00
2018-12-13T15:20:07.430Z,1.10
2018-12-13T15:22:36.898Z,1.10
2018-12-13T15:25:05.796Z,1.10
2018-12-13T15:27:34.227Z,1.10
2018-12-13T15:30:02.732Z,1.10
2018-12-13T15:32:31.252Z,1.10
2018-12-13T15:34:59.711Z,1.10
2018-12-13T15:37:28.472Z,1.10
2018-12-13T15:39:57.381Z,1.10
2018-12-13T15:42:25.962Z,1.10
2018-12-13T15:44:54.406Z,1.10
2018-12-13T15:47:22.939Z,1.10
2018-12-13T15:49:51.415Z,1.10
2018-12-13T15:52:19.863Z,1.20
2018-12-13T15:54:48.353Z,1.20
2018-12-13T15:57:16.783Z,1.10
2018-12-13T15:59:45.303Z,1.10
2018-12-13T16:02:13.736Z,1.10
2018-12-13T16:04:42.205Z,1.10
2018-12-13T16:07:10.672Z,1.10
2018-12-13T16:09:39.132Z,1.10
2018-12-13T16:12:07.695Z,1.20
2018-12-13T16:14:36.191Z,1.20
2018-12-13T16:17:04.974Z,1.20
2018-12-13T16:19:33.475Z,1.10
2018-12-13T16:22:01.924Z,1.10
2018-12-13T16:24:30.429Z,1.20
2018-12-13T16:26:58.870Z,1.20
2018-12-13T16:29:27.333Z,1.20
2018-12-13T16:31:55.924Z,1.20
2018-12-13T16:34:24.396Z,1.20
2018-12-13T16:36:52.834Z,1.20
2018-12-13T16:39:21.651Z,1.30
2018-12-13T16:41:50.071Z,1.30
2018-12-13T16:44:18.525Z,1.20
2018-12-13T16:46:47.024Z,1.20
2018-12-13T16:49:15.475Z,1.20
2018-12-13T16:51:43.914Z,1.20
2018-12-13T16:54:12.429Z,1.20
2018-12-13T16:56:40.894Z,1.30
2018-12-13T16:59:09.337Z,1.30
2018-12-13T17:01:37.837Z,1.30
2018-12-13T17:04:06.419Z,1.30
2018-12-13T17:06:34.871Z,1.30
2018-12-13T17:09:05.251Z,1.30
2018-12-13T17:11:33.711Z,1.20
2018-12-13T17:14:02.323Z,1.30
2018-12-13T17:16:30.755Z,1.30
2018-12-13T17:18:59.219Z,1.30
2018-12-13T17:21:27.675Z,1.30
2018-12-13T17:23:56.187Z,1.30
2018-12-13T17:26:24.670Z,1.30
2018-12-13T17:28:53.152Z,1.20
2018-12-13T17:31:21.579Z,1.20
2018-12-13T17:33:50.046Z,1.20
2018-12-13T17:36:18.522Z,1.30
2018-12-13T17:38:46.973Z,1.30
2018-12-13T17:41:15.386Z,1.20
2018-12-13T17:43:43.830Z,1.30
2018-12-13T17:46:12.291Z,1.20
2018-12-13T17:48:40.735Z,1.20
2018-12-13T17:51:09.127Z,1.20
2018-12-13T17:53:37.533Z,1.20
2018-12-13T17:56:05.950Z,1.20
2018-12-13T17:58:34.428Z,1.20
2018-12-13T18:01:02.872Z,1.20
2018-12-13T18:03:31.345Z,1.20
2018-12-13T18:05:59.827Z,1.20
2018-12-13T18:08:28.304Z,1.20
2018-12-13T18:10:56.805Z,1.20
2018-12-13T18:13:25.266Z,1.30
2018-12-13T18:15:53.779Z,1.30
2018-12-13T18:18:22.271Z,1.30
2018-12-13T18:20:50.736Z,1.30
2018-12-13T18:23:19.210Z,1.30
2018-12-13T18:25:47.678Z,1.20
2018-12-13T18:28:16.197Z,1.30
2018-12-13T18:30:44.674Z,1.20
2018-12-13T18:33:13.189Z,1.20
2018-12-13T18:35:41.711Z,1.20
2018-12-13T18:38:10.297Z,1.20
2018-12-13T18:40:38.757Z,1.20
2018-12-13T18:43:07.224Z,1.20
2018-12-13T18:45:36.779Z,1.20
2018-12-13T18:48:05.977Z,1.20
2018-12-13T18:50:34.480Z,1.20
2018-12-13T18:53:02.960Z,1.10
2018-12-13T18:55:31.428Z,1.20
2018-12-13T18:57:59.927Z,1.10
2018-12-13T19:00:28.601Z,1.10
2018-12-13T19:02:57.098Z,1.10
2018-12-13T19:05:25.573Z,1.10
2018-12-13T19:07:54.013Z,1.10
2018-12-13T19:10:22.485Z,1.10
2018-12-13T19:12:50.954Z,1.00
2018-12-13T19:15:19.445Z,1.10
2018-12-13T19:17:47.892Z,1.10
2018-12-13T19:20:16.429Z,1.10
2018-12-13T19:22:44.885Z,1.10
2018-12-13T19:25:13.497Z,1.20
2018-12-13T19:27:41.957Z,1.10
2018-12-13T19:30:10.493Z,1.10
2018-12-13T19:32:38.932Z,1.10
2018-12-13T19:35:07.607Z,1.10
2018-12-13T19:37:36.222Z,1.10
2018-12-13T19:40:04.962Z,1.10
2018-12-13T19:42:33.435Z,1.00
2018-12-13T19:45:01.957Z,1.00
2018-12-13T19:47:30.373Z,1.10
2018-12-13T19:49:58.814Z,1.10
2018-12-13T19:52:27.241Z,1.10
2018-12-13T19:54:55.769Z,1.10
2018-12-13T19:57:24.241Z,1.10
2018-12-13T19:59:52.654Z,1.10
2018-12-13T20:02:21.129Z,1.10
2018-12-13T20:04:49.545Z,1.10
2018-12-13T20:07:17.969Z,1.10
2018-12-13T20:09:46.430Z,1.10
2018-12-13T20:12:14.856Z,1.00
2018-12-13T20:14:43.281Z,1.10
2018-12-13T20:17:11.697Z,1.10
2018-12-13T20:19:40.100Z,1.10
2018-12-13T20:22:08.514Z,1.10
2018-12-13T20:24:36.914Z,1.10
2018-12-13T20:27:05.330Z,1.10
2018-12-13T20:29:33.959Z,1.10
2018-12-13T20:32:02.413Z,1.10
2018-12-13T20:34:30.868Z,1.10
2018-12-13T20:36:59.303Z,1.10
2018-12-13T20:39:28.051Z,1.10
2018-12-13T20:41:56.470Z,1.10
2018-12-13T20:44:24.903Z,1.10
2018-12-13T20:46:53.470Z,1.10
2018-12-13T20:49:21.972Z,1.00
2018-12-13T20:51:50.434Z,1.10
2018-12-13T20:54:18.878Z,1.10
2018-12-13T20:56:47.334Z,1.00
2018-12-13T20:59:15.766Z,1.10
2018-12-13T21:01:44.359Z,1.10
2018-12-13T21:04:12.854Z,1.10
2018-12-13T21:06:41.295Z,1.10
2018-12-13T21:09:09.753Z,1.10
2018-12-13T21:11:38.199Z,1.10
2018-12-13T21:14:06.649Z,1.10
2018-12-13T21:16:35.102Z,1.10
2018-12-13T21:19:03.718Z,1.10
2018-12-13T21:21:32.181Z,1.00
2018-12-13T21:24:00.616Z,1.00
2018-12-13T21:26:29.045Z,1.00
2018-12-13T21:28:57.483Z,1.10
2018-12-13T21:31:25.927Z,1.00
2018-12-13T21:33:54.386Z,1.00
2018-12-13T21:36:22.773Z,1.00
2018-12-13T21:38:51.210Z,1.00
2018-12-13T21:41:19.603Z,1.00
2018-12-13T21:43:48.037Z,1.00
2018-12-13T21:46:16.489Z,1.00
2018-12-13T21:48:44.951Z,1.00
2018-12-13T21:51:13.400Z,1.00
2018-12-13T21:53:41.870Z,0.90
2018-12-13T21:56:10.255Z,0.90
2018-12-13T21:58:38.674Z,0.90
2018-12-13T22:01:07.091Z,0.90
2018-12-13T22:03:35.530Z,0.90
2018-12-13T22:06:04.038Z,1.00
2018-12-13T22:08:32.502Z,0.90
2018-12-13T22:11:00.925Z,0.90
2018-12-13T22:13:29.343Z,1.00
2018-12-13T22:15:57.747Z,0.90
2018-12-13T22:18:26.163Z,0.90
2018-12-13T22:20:54.597Z,0.80
2018-12-13T22:23:23.055Z,0.90
2018-12-13T22:25:51.502Z,0.90
2018-12-13T22:28:19.909Z,0.90
2018-12-13T22:30:48.304Z,0.90
2018-12-13T22:33:16.783Z,0.90
2018-12-13T22:35:45.217Z,0.90
2018-12-13T22:38:13.666Z,0.90
2018-12-13T22:40:42.106Z,0.90
2018-12-13T22:43:10.559Z,0.90
2018-12-13T22:45:39.203Z,0.90
2018-12-13T22:48:07.675Z,0.90
2018-12-13T22:50:36.154Z,0.90
2018-12-13T22:53:04.730Z,0.90
2018-12-13T22:55:33.141Z,0.90
2018-12-13T22:58:01.573Z,0.80
2018-12-13T23:00:30.071Z,0.80
2018-12-13T23:02:58.565Z,0.80
2018-12-13T23:05:27.204Z,0.90
2018-12-13T23:07:55.633Z,0.90
2018-12-13T23:10:24.048Z,0.80
2018-12-13T23:12:52.477Z,0.80
2018-12-13T23:15:21.008Z,0.80
2018-12-13T23:17:49.721Z,0.90
2018-12-13T23:20:18.137Z,0.80
2018-12-13T23:22:46.597Z,0.80
2018-12-13T23:25:15.018Z,0.80
2018-12-13T23:27:43.437Z,0.80
2018-12-13T23:30:11.977Z,0.80
2018-12-13T23:32:40.477Z,0.80
2018-12-13T23:35:09.025Z,0.80
2018-12-13T23:37:37.462Z,0.80
2018-12-13T23:40:06.105Z,0.80
2018-12-13T23:42:34.535Z,0.80
2018-12-13T23:45:03.010Z,0.80
2018-12-13T23:47:31.453Z,0.90
2018-12-13T23:49:59.935Z,0.90
2018-12-13T23:52:28.344Z,0.80
2018-12-13T23:54:56.775Z,0.80
2018-12-13T23:57:25.200Z,0.80
2018-12-13T23:59:53.697Z,0.80
